createdAt,value
2023-06-30T00:00:19.434Z,17.15
2023-06-30T00:02:48.922Z,16.95
2023-06-30T00:05:15.682Z,17.77
2023-06-30T00:07:43.822Z,17.90
2023-06-30T00:10:11.235Z,17.30
2023-06-30T00:12:38.242Z,17.73
2023-06-30T00:15:05.848Z,18.33
2023-06-30T00:17:35.232Z,20.02
2023-06-30T00:20:06.898Z,19.08
2023-06-30T00:22:37.026Z,16.53
2023-06-30T00:25:04.109Z,17.15
2023-06-30T00:27:30.704Z,17.55
2023-06-30T00:29:57.266Z,16.92
2023-06-30T00:32:24.384Z,17.08
2023-06-30T00:34:51.024Z,18.70
2023-06-30T00:37:19.926Z,16.70
2023-06-30T00:39:51.390Z,20.63
2023-06-30T00:42:20.170Z,17.27
2023-06-30T00:44:46.846Z,19.13
2023-06-30T00:47:15.716Z,15.73
2023-06-30T00:49:42.447Z,18.13
2023-06-30T00:52:09.100Z,19.92
2023-06-30T00:54:35.769Z,19.38
2023-06-30T00:59:38.832Z,18.20
2023-06-30T01:02:25.749Z,20.60
2023-06-30T01:05:11.791Z,16.40
2023-06-30T01:07:40.183Z,17.17
2023-06-30T01:10:15.808Z,16.52
2023-06-30T01:12:48.638Z,19.13
2023-06-30T01:15:16.174Z,17.50
2023-06-30T01:17:53.153Z,18.52
2023-06-30T01:20:22.884Z,17.15
2023-06-30T01:22:59.376Z,17.52
2023-06-30T01:25:30.268Z,17.60
2023-06-30T01:27:57.937Z,17.50
2023-06-30T01:30:31.135Z,17.00
2023-06-30T01:33:00.125Z,17.70
2023-06-30T01:35:30.219Z,18.98
2023-06-30T01:37:57.441Z,17.47
2023-06-30T01:40:28.761Z,16.85
2023-06-30T01:43:01.364Z,18.73
2023-06-30T01:45:29.568Z,17.40
2023-06-30T01:47:57.716Z,18.02
2023-06-30T01:50:24.613Z,15.57
2023-06-30T01:52:51.606Z,18.10
2023-06-30T01:55:20.268Z,18.10
2023-06-30T01:57:46.856Z,17.70
2023-06-30T02:00:13.852Z,17.70
2023-06-30T02:02:43.861Z,16.07
2023-06-30T02:05:10.904Z,17.15
2023-06-30T02:07:37.564Z,20.00
2023-06-30T02:10:04.516Z,17.73
2023-06-30T02:12:31.143Z,18.45
2023-06-30T02:14:57.995Z,16.80
2023-06-30T02:17:34.429Z,16.40
2023-06-30T02:20:07.187Z,18.48
2023-06-30T02:22:34.857Z,18.08
2023-06-30T02:25:01.437Z,17.63
2023-06-30T02:27:33.150Z,16.97
2023-06-30T02:30:06.263Z,17.30
2023-06-30T02:32:34.140Z,18.67
2023-06-30T02:35:00.862Z,19.55
2023-06-30T02:37:27.802Z,17.70
2023-06-30T02:39:56.727Z,18.50
2023-06-30T02:42:25.593Z,19.08
2023-06-30T02:44:54.722Z,19.33
2023-06-30T02:47:24.348Z,17.20
2023-06-30T02:49:53.221Z,17.38
2023-06-30T02:52:19.804Z,16.93
2023-06-30T02:54:46.431Z,17.98
2023-06-30T02:57:12.995Z,17.58
2023-06-30T02:59:44.220Z,16.77
2023-06-30T03:02:14.071Z,18.02
2023-06-30T03:04:43.169Z,18.13
2023-06-30T03:07:21.115Z,16.70
2023-06-30T03:09:48.130Z,17.10
2023-06-30T03:12:14.696Z,17.95
2023-06-30T03:14:41.418Z,16.65
2023-06-30T03:17:16.376Z,16.33
2023-06-30T03:19:43.004Z,17.55
2023-06-30T03:22:09.808Z,15.60
2023-06-30T03:24:36.591Z,17.25
2023-06-30T03:27:03.444Z,16.85
2023-06-30T03:29:34.813Z,16.03
2023-06-30T03:32:03.683Z,17.02
2023-06-30T03:34:33.298Z,16.27
2023-06-30T03:37:02.104Z,15.35
2023-06-30T03:39:28.717Z,17.15
2023-06-30T03:41:55.347Z,16.10
2023-06-30T03:44:28.145Z,16.70
2023-06-30T03:46:55.189Z,16.27
2023-06-30T03:49:22.813Z,15.82
2023-06-30T03:51:49.386Z,16.55
2023-06-30T03:54:18.197Z,14.97
2023-06-30T03:56:44.770Z,15.95
2023-06-30T03:59:11.451Z,14.85
2023-06-30T04:01:42.617Z,14.80
2023-06-30T04:04:09.513Z,17.90
2023-06-30T04:06:40.305Z,15.07
2023-06-30T04:09:11.420Z,15.55
2023-06-30T04:11:41.062Z,16.48
2023-06-30T04:14:07.685Z,16.85
2023-06-30T04:16:34.285Z,15.50
2023-06-30T04:19:03.161Z,17.67
2023-06-30T04:21:32.158Z,15.98
2023-06-30T04:24:01.707Z,14.80
2023-06-30T04:26:31.755Z,16.95
2023-06-30T04:28:58.606Z,15.15
2023-06-30T04:31:28.114Z,14.83
2023-06-30T04:33:55.341Z,16.52
2023-06-30T04:36:22.001Z,15.93
2023-06-30T04:38:51.203Z,15.38
2023-06-30T04:41:19.457Z,14.38
2023-06-30T04:43:48.394Z,16.10
2023-06-30T04:46:17.352Z,17.15
2023-06-30T04:48:44.015Z,14.20
2023-06-30T04:51:10.770Z,15.63
2023-06-30T04:53:41.811Z,15.20
2023-06-30T04:56:08.632Z,15.93
2023-06-30T04:58:35.378Z,16.05
2023-06-30T05:01:02.236Z,16.30
2023-06-30T05:03:34.021Z,16.58
2023-06-30T05:06:00.723Z,16.48
2023-06-30T05:08:27.561Z,14.70
2023-06-30T05:10:56.516Z,14.18
2023-06-30T05:13:23.065Z,15.27
2023-06-30T05:15:52.693Z,15.23
2023-06-30T05:18:19.349Z,16.65
2023-06-30T05:20:45.999Z,16.00
2023-06-30T05:23:12.571Z,14.43
2023-06-30T05:25:41.530Z,16.35
2023-06-30T05:28:11.739Z,17.50
2023-06-30T05:30:39.767Z,14.38
2023-06-30T05:33:06.346Z,14.73
2023-06-30T05:35:35.262Z,15.20
2023-06-30T05:38:01.976Z,15.93
2023-06-30T05:40:28.725Z,13.88
2023-06-30T05:43:00.150Z,15.77
2023-06-30T05:45:29.196Z,14.80
2023-06-30T05:47:55.863Z,14.73
2023-06-30T05:50:24.957Z,14.63
2023-06-30T05:52:53.920Z,13.65
2023-06-30T05:55:23.216Z,16.33
2023-06-30T05:57:49.861Z,13.43
2023-06-30T06:00:17.508Z,14.10
2023-06-30T06:02:46.473Z,14.80
2023-06-30T06:05:15.574Z,12.40
2023-06-30T06:07:45.007Z,12.80
2023-06-30T06:10:11.696Z,11.17
2023-06-30T06:12:41.134Z,11.82
2023-06-30T06:15:10.867Z,12.15
2023-06-30T06:17:39.931Z,11.30
2023-06-30T06:20:07.021Z,11.40
2023-06-30T06:22:38.180Z,11.90
2023-06-30T06:25:05.238Z,12.32
2023-06-30T06:27:37.031Z,10.18
2023-06-30T06:30:09.424Z,10.38
2023-06-30T06:32:36.250Z,10.70
2023-06-30T06:35:02.935Z,11.23
2023-06-30T06:37:31.757Z,11.20
2023-06-30T06:39:58.357Z,10.80
2023-06-30T06:42:27.261Z,10.55
2023-06-30T06:44:56.137Z,11.85
2023-06-30T06:48:16.890Z,11.73
2023-06-30T06:50:46.100Z,11.70
2023-06-30T06:53:23.069Z,10.45
2023-06-30T06:55:52.976Z,12.15
2023-06-30T06:58:25.227Z,10.50
2023-06-30T07:00:52.918Z,11.93
2023-06-30T07:03:22.280Z,11.70
2023-06-30T07:05:52.993Z,12.98
2023-06-30T07:08:20.310Z,11.85
2023-06-30T07:10:51.283Z,11.07
2023-06-30T07:13:21.957Z,12.93
2023-06-30T07:15:49.789Z,14.20
2023-06-30T07:18:19.388Z,11.55
2023-06-30T07:20:54.112Z,11.70
2023-06-30T07:23:26.412Z,14.05
2023-06-30T07:25:53.716Z,13.20
2023-06-30T07:28:20.371Z,14.13
2023-06-30T07:30:49.652Z,12.07
2023-06-30T07:33:21.129Z,12.88
2023-06-30T07:35:47.850Z,12.68
2023-06-30T07:38:17.128Z,11.83
2023-06-30T07:40:55.210Z,12.15
2023-06-30T07:43:25.645Z,16.77
2023-06-30T07:45:52.395Z,11.52
2023-06-30T07:48:19.073Z,14.63
2023-06-30T07:50:58.827Z,13.57
2023-06-30T07:53:35.441Z,13.90
2023-06-30T07:56:05.286Z,14.38
2023-06-30T07:58:32.663Z,13.70
2023-06-30T08:00:59.292Z,12.82
2023-06-30T08:03:26.016Z,15.43
2023-06-30T08:05:56.514Z,15.73
2023-06-30T08:08:24.632Z,14.88
2023-06-30T08:10:51.208Z,14.90
2023-06-30T08:13:17.811Z,14.88
2023-06-30T08:15:49.969Z,14.23
2023-06-30T08:18:31.500Z,14.15
2023-06-30T08:21:01.058Z,15.25
2023-06-30T08:23:30.173Z,14.20
2023-06-30T08:25:56.767Z,14.77
2023-06-30T08:28:23.422Z,13.93
2023-06-30T08:30:53.419Z,15.80
2023-06-30T08:33:35.096Z,15.65
2023-06-30T08:36:07.251Z,15.52
2023-06-30T08:38:36.339Z,17.08
2023-06-30T08:41:04.382Z,13.50
2023-06-30T08:43:35.542Z,14.93
2023-06-30T08:46:03.940Z,16.17
2023-06-30T08:48:36.987Z,14.27
2023-06-30T08:51:04.196Z,14.48
2023-06-30T08:53:34.541Z,13.60
2023-06-30T08:56:03.451Z,14.70
2023-06-30T08:58:30.055Z,14.85
2023-06-30T09:00:57.211Z,15.88
2023-06-30T09:03:24.725Z,15.45
2023-06-30T09:05:54.894Z,13.90
2023-06-30T09:08:25.048Z,15.20
2023-06-30T09:10:56.151Z,14.02
2023-06-30T09:13:27.741Z,15.35
2023-06-30T09:15:58.820Z,14.57
2023-06-30T09:18:26.060Z,16.17
2023-06-30T09:20:54.016Z,16.25
2023-06-30T09:23:23.280Z,14.80
2023-06-30T09:25:53.089Z,15.50
2023-06-30T09:28:19.751Z,15.50
2023-06-30T09:30:48.079Z,14.90
2023-06-30T09:33:16.820Z,16.20
2023-06-30T09:35:49.559Z,16.80
2023-06-30T09:38:18.422Z,16.05
2023-06-30T09:40:49.697Z,16.52
2023-06-30T09:43:18.417Z,18.53
2023-06-30T09:45:47.802Z,16.10
2023-06-30T09:48:17.236Z,17.88
2023-06-30T09:50:44.058Z,17.63
2023-06-30T09:53:12.740Z,16.90
2023-06-30T09:55:52.362Z,18.07
2023-06-30T09:58:21.009Z,15.75
2023-06-30T10:00:48.669Z,16.90
2023-06-30T10:03:19.705Z,15.48
2023-06-30T10:05:50.371Z,15.68
2023-06-30T10:08:21.224Z,17.53
2023-06-30T10:10:48.768Z,16.88
2023-06-30T10:13:17.606Z,15.63
2023-06-30T10:15:47.321Z,16.23
2023-06-30T10:18:18.943Z,17.17
2023-06-30T10:20:50.291Z,17.87
2023-06-30T10:23:22.217Z,18.38
2023-06-30T10:25:50.918Z,16.80
2023-06-30T10:28:19.331Z,15.95
2023-06-30T10:30:50.423Z,16.63
2023-06-30T10:33:17.118Z,16.07
2023-06-30T10:35:45.226Z,16.40
2023-06-30T10:38:14.260Z,16.02
2023-06-30T10:40:41.063Z,15.15
2023-06-30T10:43:14.772Z,16.33
2023-06-30T10:46:12.486Z,18.53
2023-06-30T10:48:44.364Z,15.82
2023-06-30T10:51:13.750Z,18.27
2023-06-30T10:53:43.814Z,16.20
2023-06-30T10:56:10.448Z,17.45
2023-06-30T10:58:46.331Z,19.20
2023-06-30T11:01:14.503Z,17.27
2023-06-30T11:03:59.699Z,18.23
2023-06-30T11:06:27.606Z,17.20
2023-06-30T11:09:04.387Z,16.77
2023-06-30T11:11:48.185Z,16.67
2023-06-30T11:14:14.867Z,16.67
2023-06-30T11:17:06.865Z,17.20
2023-06-30T11:19:36.187Z,18.60
2023-06-30T11:22:22.902Z,16.67
2023-06-30T11:24:52.285Z,16.33
2023-06-30T11:27:20.189Z,16.88
2023-06-30T11:29:53.857Z,18.00
2023-06-30T11:32:28.955Z,17.13
2023-06-30T11:34:57.098Z,17.25
2023-06-30T11:37:31.097Z,17.07
2023-06-30T11:39:59.461Z,15.50
2023-06-30T11:42:30.798Z,17.55
2023-06-30T11:44:57.372Z,17.40
2023-06-30T11:47:26.811Z,17.85
2023-06-30T11:49:58.216Z,17.13
2023-06-30T11:52:27.126Z,17.38
2023-06-30T11:54:53.906Z,17.17
2023-06-30T11:57:20.549Z,16.38
2023-06-30T11:59:49.163Z,16.60
2023-06-30T12:02:18.306Z,17.47
2023-06-30T12:04:48.861Z,15.88
2023-06-30T12:07:16.094Z,17.95
2023-06-30T12:09:46.152Z,19.23
2023-06-30T12:12:26.341Z,19.10
2023-06-30T12:14:56.278Z,16.73
2023-06-30T12:17:25.592Z,18.30
2023-06-30T12:19:52.171Z,19.05
2023-06-30T12:22:28.399Z,17.65
2023-06-30T12:25:00.097Z,17.45
2023-06-30T12:27:28.559Z,18.17
2023-06-30T12:29:58.215Z,17.45
2023-06-30T12:32:32.255Z,18.77
2023-06-30T12:35:01.301Z,19.85
2023-06-30T12:37:31.226Z,17.38
2023-06-30T12:39:59.911Z,18.50
2023-06-30T12:42:33.479Z,19.00
2023-06-30T12:45:00.633Z,19.05
2023-06-30T12:47:27.284Z,19.08
2023-06-30T12:49:56.438Z,18.67
2023-06-30T12:52:25.571Z,19.03
2023-06-30T12:54:52.268Z,18.10
2023-06-30T12:57:18.885Z,19.98
2023-06-30T12:59:45.482Z,19.63
2023-06-30T13:02:15.054Z,16.92
2023-06-30T13:04:41.642Z,18.97
2023-06-30T13:07:11.256Z,17.30
2023-06-30T13:09:37.859Z,18.48
2023-06-30T13:12:12.689Z,18.80
2023-06-30T13:14:41.598Z,19.27
2023-06-30T13:17:10.604Z,17.40
2023-06-30T13:19:44.551Z,19.38
2023-06-30T13:22:11.169Z,17.80
2023-06-30T13:24:40.690Z,18.67
2023-06-30T13:27:07.830Z,14.82
2023-06-30T13:29:35.980Z,14.33
2023-06-30T13:32:05.570Z,14.27
2023-06-30T13:34:34.458Z,11.85
2023-06-30T13:37:03.109Z,10.52
2023-06-30T13:39:29.697Z,10.30
2023-06-30T13:41:56.296Z,10.60
2023-06-30T13:44:25.714Z,9.48
2023-06-30T13:46:52.271Z,11.40
2023-06-30T13:49:18.885Z,11.25
2023-06-30T13:51:45.475Z,10.48
2023-06-30T13:54:12.075Z,11.30
2023-06-30T13:56:38.621Z,11.15
2023-06-30T13:59:09.985Z,9.85
2023-06-30T14:01:39.617Z,11.98
2023-06-30T14:04:06.167Z,12.45
2023-06-30T14:06:35.027Z,15.23
2023-06-30T14:09:03.952Z,12.73
2023-06-30T14:11:30.515Z,12.98
2023-06-30T14:14:04.476Z,12.05
2023-06-30T14:16:31.906Z,14.07
2023-06-30T14:19:03.524Z,12.57
2023-06-30T14:21:31.919Z,13.27
2023-06-30T14:23:59.115Z,12.98
2023-06-30T14:26:26.185Z,15.52
2023-06-30T14:28:56.650Z,15.73
2023-06-30T14:31:23.322Z,14.63
2023-06-30T14:33:54.725Z,14.05
2023-06-30T14:36:27.300Z,13.55
2023-06-30T14:38:56.179Z,14.63
2023-06-30T14:41:23.588Z,14.65
2023-06-30T14:43:53.222Z,15.57
2023-06-30T14:46:21.946Z,15.07
2023-06-30T14:48:51.602Z,16.10
2023-06-30T14:51:18.313Z,16.25
2023-06-30T14:53:51.996Z,16.92
2023-06-30T14:56:18.574Z,18.70
2023-06-30T14:58:51.018Z,19.67
2023-06-30T15:01:21.873Z,18.38
2023-06-30T15:03:49.973Z,18.42
2023-06-30T15:06:19.995Z,19.42
2023-06-30T15:08:46.574Z,17.37
2023-06-30T15:11:13.318Z,18.08
2023-06-30T15:13:39.999Z,21.00
2023-06-30T15:16:06.678Z,18.83
2023-06-30T15:18:35.463Z,20.17
2023-06-30T15:21:02.116Z,20.97
2023-06-30T15:23:31.254Z,21.52
2023-06-30T15:25:57.859Z,21.23
2023-06-30T15:28:24.422Z,18.25
2023-06-30T15:30:55.573Z,17.20
2023-06-30T15:33:22.225Z,19.43
2023-06-30T15:35:48.935Z,19.80
2023-06-30T15:38:15.603Z,19.73
2023-06-30T15:40:43.398Z,20.27
2023-06-30T15:43:13.529Z,19.65
2023-06-30T15:45:41.188Z,18.43
2023-06-30T15:48:16.134Z,18.15
2023-06-30T15:50:46.486Z,17.35
2023-06-30T15:53:15.530Z,15.70
2023-06-30T15:55:44.679Z,14.73
2023-06-30T15:58:11.469Z,15.80
2023-06-30T16:00:38.113Z,14.13
2023-06-30T16:03:04.870Z,15.73
2023-06-30T16:05:33.826Z,15.88
2023-06-30T16:08:03.484Z,16.70
2023-06-30T16:10:32.152Z,15.67
2023-06-30T16:12:58.860Z,14.88
2023-06-30T16:15:25.847Z,15.98
2023-06-30T16:17:57.310Z,14.43
2023-06-30T16:20:23.967Z,16.23
2023-06-30T16:22:50.699Z,14.23
2023-06-30T16:25:22.144Z,12.80
2023-06-30T16:27:51.056Z,13.73
2023-06-30T16:30:31.790Z,12.13
2023-06-30T16:33:04.099Z,16.15
2023-06-30T16:35:34.372Z,14.13
2023-06-30T16:38:03.650Z,12.65
2023-06-30T16:40:32.843Z,14.18
2023-06-30T16:42:59.405Z,15.07
2023-06-30T16:45:30.993Z,14.40
2023-06-30T16:48:00.661Z,13.50
2023-06-30T16:50:30.010Z,13.20
2023-06-30T16:52:56.582Z,12.90
2023-06-30T16:55:27.958Z,12.95
2023-06-30T16:57:56.962Z,11.88
2023-06-30T17:00:25.766Z,13.53
2023-06-30T17:02:52.508Z,11.95
2023-06-30T17:05:19.225Z,11.50
2023-06-30T17:07:45.884Z,12.25
2023-06-30T17:10:12.742Z,10.55
2023-06-30T17:12:41.826Z,9.63
2023-06-30T17:15:14.715Z,10.82
2023-06-30T17:17:41.302Z,10.00
2023-06-30T17:20:08.598Z,10.52
2023-06-30T17:22:35.165Z,10.57
2023-06-30T17:25:05.106Z,9.43
2023-06-30T17:27:32.516Z,10.60
2023-06-30T17:29:59.355Z,10.90
2023-06-30T17:32:28.391Z,9.38
2023-06-30T17:34:54.977Z,9.70
2023-06-30T17:37:26.395Z,10.50
2023-06-30T17:39:53.017Z,9.30
2023-06-30T17:42:19.602Z,9.70
2023-06-30T17:44:46.218Z,10.02
2023-06-30T17:47:17.571Z,8.20
2023-06-30T17:49:47.370Z,8.97
2023-06-30T17:52:14.185Z,8.32
2023-06-30T17:54:40.838Z,8.98
2023-06-30T17:57:12.335Z,7.30
2023-06-30T17:59:41.277Z,7.25
2023-06-30T18:02:07.900Z,7.30
2023-06-30T18:04:34.659Z,7.72
2023-06-30T18:07:09.908Z,8.40
2023-06-30T18:09:40.235Z,7.38
2023-06-30T18:12:11.197Z,8.95
2023-06-30T18:14:41.424Z,7.40
2023-06-30T18:17:11.534Z,8.07
2023-06-30T18:19:43.748Z,7.97
2023-06-30T18:22:14.533Z,7.22
2023-06-30T18:24:43.625Z,7.95
2023-06-30T18:27:10.287Z,7.87
2023-06-30T18:29:40.480Z,6.88
2023-06-30T18:32:10.431Z,7.82
2023-06-30T18:34:37.196Z,8.57
2023-06-30T18:37:08.356Z,7.50
2023-06-30T18:39:38.660Z,8.50
2023-06-30T18:42:08.050Z,7.20
2023-06-30T18:44:37.281Z,6.68
2023-06-30T18:47:06.082Z,8.15
2023-06-30T18:49:35.810Z,6.60
2023-06-30T18:52:08.264Z,6.17
2023-06-30T18:54:35.009Z,7.13
2023-06-30T18:57:03.863Z,7.40
2023-06-30T18:59:35.261Z,6.82
2023-06-30T19:02:01.913Z,7.72
2023-06-30T19:04:28.617Z,7.33
2023-06-30T19:06:55.308Z,6.97
2023-06-30T19:09:24.615Z,8.18
2023-06-30T19:11:56.849Z,7.38
2023-06-30T19:14:27.622Z,7.43
2023-06-30T19:16:54.297Z,7.10
2023-06-30T19:19:31.635Z,6.85
2023-06-30T19:21:58.254Z,5.93
2023-06-30T19:24:27.005Z,5.78
2023-06-30T19:26:58.434Z,5.93
2023-06-30T19:29:27.469Z,4.70
2023-06-30T19:31:56.443Z,5.40
2023-06-30T19:34:25.360Z,5.35
2023-06-30T19:36:53.324Z,6.53
2023-06-30T19:39:19.862Z,6.18
2023-06-30T19:41:46.558Z,5.60
2023-06-30T19:44:13.291Z,7.03
2023-06-30T19:46:42.379Z,6.55
2023-06-30T19:49:08.970Z,6.10
2023-06-30T19:51:35.591Z,6.45
2023-06-30T19:54:02.154Z,4.50
2023-06-30T19:56:28.749Z,5.60
2023-06-30T19:58:55.345Z,7.32
2023-06-30T20:01:26.574Z,6.88
2023-06-30T20:03:57.363Z,6.40
2023-06-30T20:06:24.196Z,5.50
2023-06-30T20:08:53.852Z,5.70
2023-06-30T20:11:22.644Z,6.35
2023-06-30T20:13:49.336Z,5.50
2023-06-30T20:16:16.043Z,6.60
2023-06-30T20:18:47.497Z,6.37
2023-06-30T20:21:14.109Z,5.72
2023-06-30T20:23:40.731Z,5.63
2023-06-30T20:26:09.556Z,6.55
2023-06-30T20:28:40.797Z,8.32
2023-06-30T20:31:07.448Z,6.37
2023-06-30T20:33:36.736Z,5.82
2023-06-30T20:36:03.605Z,7.40
2023-06-30T20:38:32.547Z,5.03
2023-06-30T20:41:01.431Z,5.35
2023-06-30T20:43:30.565Z,4.90
2023-06-30T20:45:59.663Z,7.30
2023-06-30T20:48:28.779Z,5.75
2023-06-30T20:50:55.417Z,5.25
2023-06-30T20:53:24.557Z,5.35
2023-06-30T20:55:56.199Z,4.77
2023-06-30T20:58:22.796Z,5.32
2023-06-30T21:00:49.515Z,6.63
2023-06-30T21:03:18.654Z,6.43
2023-06-30T21:05:45.460Z,5.68
2023-06-30T21:08:12.120Z,7.40
2023-06-30T21:10:40.959Z,6.43
2023-06-30T21:13:07.553Z,6.80
2023-06-30T21:15:34.154Z,8.30
2023-06-30T21:18:00.805Z,6.05
2023-06-30T21:20:27.462Z,7.63
2023-06-30T21:22:56.261Z,7.10
2023-06-30T21:25:22.874Z,7.53
2023-06-30T21:27:49.510Z,5.78
2023-06-30T21:30:16.217Z,6.30
2023-06-30T21:32:42.809Z,7.93
2023-06-30T21:35:09.651Z,7.60
2023-06-30T21:37:36.547Z,9.40
2023-06-30T21:40:03.736Z,6.63
2023-06-30T21:42:32.694Z,6.70
2023-06-30T21:44:59.288Z,7.70
2023-06-30T21:47:28.989Z,7.72
2023-06-30T21:49:55.897Z,6.65
2023-06-30T21:52:24.707Z,8.70
2023-06-30T21:54:56.062Z,7.47
2023-06-30T21:57:24.850Z,8.30
2023-06-30T21:59:53.926Z,9.00
2023-06-30T22:02:23.181Z,8.13
2023-06-30T22:04:52.126Z,7.20
2023-06-30T22:07:21.126Z,7.57
2023-06-30T22:09:52.503Z,6.80
2023-06-30T22:12:21.344Z,9.20
2023-06-30T22:14:47.991Z,8.60
2023-06-30T22:17:14.653Z,7.68
2023-06-30T22:19:43.619Z,8.13
2023-06-30T22:22:12.450Z,7.30
2023-06-30T22:24:39.009Z,7.13
2023-06-30T22:27:06.198Z,7.05
2023-06-30T22:29:35.028Z,10.05
2023-06-30T22:32:01.664Z,9.00
2023-06-30T22:34:28.466Z,7.60
2023-06-30T22:36:55.172Z,6.95
2023-06-30T22:39:24.032Z,6.82
2023-06-30T22:41:53.145Z,7.22
2023-06-30T22:44:19.796Z,6.88
2023-06-30T22:46:51.240Z,6.47
2023-06-30T22:49:17.848Z,6.28
2023-06-30T22:51:49.223Z,7.88
2023-06-30T22:54:15.806Z,8.02
2023-06-30T22:56:42.469Z,6.45
2023-06-30T22:59:09.116Z,9.30
2023-06-30T23:01:38.221Z,8.65
2023-06-30T23:04:05.149Z,7.05
2023-06-30T23:06:34.299Z,5.93
2023-06-30T23:09:01.005Z,7.75
2023-06-30T23:11:27.620Z,8.07
2023-06-30T23:13:54.226Z,7.45
2023-06-30T23:16:20.840Z,7.00
2023-06-30T23:18:49.687Z,6.47
2023-06-30T23:21:19.044Z,7.05
2023-06-30T23:23:49.614Z,7.20
2023-06-30T23:26:25.126Z,6.68
2023-06-30T23:28:54.493Z,6.82
2023-06-30T23:31:21.938Z,6.60
2023-06-30T23:33:55.442Z,7.45
2023-06-30T23:36:24.276Z,7.07
2023-06-30T23:38:51.119Z,6.60
2023-06-30T23:41:17.774Z,6.65
2023-06-30T23:43:46.893Z,7.30
2023-06-30T23:46:22.765Z,9.45
2023-06-30T23:48:51.732Z,6.63
2023-06-30T23:51:21.210Z,7.28
2023-06-30T23:53:50.201Z,7.72
2023-06-30T23:56:19.811Z,6.32
2023-06-30T23:58:49.117Z,7.22
